sensor_id;sensor_type;location;lat;lon;timestamp;temperature;humidity
34231;DHT22;21574;51.538;-0.084;2022-07-29T00:00:28;26.90;45.70
34231;DHT22;21574;51.538;-0.084;2022-07-29T00:02:54;26.90;45.70
34231;DHT22;21574;51.538;-0.084;2022-07-29T00:05:19;26.90;45.90
34231;DHT22;21574;51.538;-0.084;2022-07-29T00:07:45;26.90;45.70
34231;DHT22;21574;51.538;-0.084;2022-07-29T00:10:10;26.90;45.80
34231;DHT22;21574;51.538;-0.084;2022-07-29T00:12:36;26.90;45.80
34231;DHT22;21574;51.538;-0.084;2022-07-29T00:15:01;26.90;45.90
34231;DHT22;21574;51.538;-0.084;2022-07-29T00:17:27;26.90;45.50
34231;DHT22;21574;51.538;-0.084;2022-07-29T00:19:52;27.00;45.40
34231;DHT22;21574;51.538;-0.084;2022-07-29T00:22:18;26.90;46.10
34231;DHT22;21574;51.538;-0.084;2022-07-29T00:24:44;27.00;45.30
34231;DHT22;21574;51.538;-0.084;2022-07-29T00:27:09;26.90;45.40
34231;DHT22;21574;51.538;-0.084;2022-07-29T00:29:35;26.90;45.10
34231;DHT22;21574;51.538;-0.084;2022-07-29T00:32:01;26.90;45.10
34231;DHT22;21574;51.538;-0.084;2022-07-29T00:34:26;26.90;45.70
34231;DHT22;21574;51.538;-0.084;2022-07-29T00:37:11;26.90;46.00
34231;DHT22;21574;51.538;-0.084;2022-07-29T00:39:36;26.90;46.10
34231;DHT22;21574;51.538;-0.084;2022-07-29T00:42:04;26.90;46.50
34231;DHT22;21574;51.538;-0.084;2022-07-29T00:44:30;26.90;46.10
34231;DHT22;21574;51.538;-0.084;2022-07-29T00:46:56;26.90;45.90
34231;DHT22;21574;51.538;-0.084;2022-07-29T00:49:22;26.90;46.10
34231;DHT22;21574;51.538;-0.084;2022-07-29T00:51:47;26.90;45.60
34231;DHT22;21574;51.538;-0.084;2022-07-29T00:54:13;26.90;46.10
34231;DHT22;21574;51.538;-0.084;2022-07-29T00:56:39;26.90;46.20
34231;DHT22;21574;51.538;-0.084;2022-07-29T00:59:04;26.90;46.30
34231;DHT22;21574;51.538;-0.084;2022-07-29T01:01:30;26.90;46.10
34231;DHT22;21574;51.538;-0.084;2022-07-29T01:03:55;26.90;45.50
34231;DHT22;21574;51.538;-0.084;2022-07-29T01:06:21;26.90;46.30
34231;DHT22;21574;51.538;-0.084;2022-07-29T01:08:47;26.90;45.30
34231;DHT22;21574;51.538;-0.084;2022-07-29T01:11:12;26.90;45.90
34231;DHT22;21574;51.538;-0.084;2022-07-29T01:13:38;26.90;45.40
34231;DHT22;21574;51.538;-0.084;2022-07-29T01:16:07;26.90;45.40
34231;DHT22;21574;51.538;-0.084;2022-07-29T01:18:38;26.90;45.50
34231;DHT22;21574;51.538;-0.084;2022-07-29T01:31:22;26.90;45.40
34231;DHT22;21574;51.538;-0.084;2022-07-29T01:33:50;26.80;45.30
34231;DHT22;21574;51.538;-0.084;2022-07-29T01:39:05;26.80;45.40
34231;DHT22;21574;51.538;-0.084;2022-07-29T01:41:33;26.80;45.50
34231;DHT22;21574;51.538;-0.084;2022-07-29T01:44:11;26.90;45.50
34231;DHT22;21574;51.538;-0.084;2022-07-29T01:46:38;26.80;45.50
34231;DHT22;21574;51.538;-0.084;2022-07-29T01:49:11;26.80;45.50
34231;DHT22;21574;51.538;-0.084;2022-07-29T01:51:43;26.80;45.50
34231;DHT22;21574;51.538;-0.084;2022-07-29T01:54:19;26.80;45.50
34231;DHT22;21574;51.538;-0.084;2022-07-29T01:56:47;26.80;45.50
34231;DHT22;21574;51.538;-0.084;2022-07-29T01:59:13;26.80;45.60
34231;DHT22;21574;51.538;-0.084;2022-07-29T02:01:40;26.80;46.00
34231;DHT22;21574;51.538;-0.084;2022-07-29T02:04:07;26.80;45.50
34231;DHT22;21574;51.538;-0.084;2022-07-29T02:06:35;26.80;45.60
34231;DHT22;21574;51.538;-0.084;2022-07-29T02:09:02;26.80;45.60
34231;DHT22;21574;51.538;-0.084;2022-07-29T02:11:29;26.90;45.60
34231;DHT22;21574;51.538;-0.084;2022-07-29T02:13:56;26.80;45.60
34231;DHT22;21574;51.538;-0.084;2022-07-29T02:16:22;26.80;45.70
34231;DHT22;21574;51.538;-0.084;2022-07-29T02:18:49;26.80;45.60
34231;DHT22;21574;51.538;-0.084;2022-07-29T02:21:16;26.80;45.60
34231;DHT22;21574;51.538;-0.084;2022-07-29T02:23:44;26.80;45.70
34231;DHT22;21574;51.538;-0.084;2022-07-29T02:26:11;26.80;45.70
34231;DHT22;21574;51.538;-0.084;2022-07-29T02:28:36;26.80;45.70
34231;DHT22;21574;51.538;-0.084;2022-07-29T02:31:04;26.80;45.60
34231;DHT22;21574;51.538;-0.084;2022-07-29T02:33:31;26.80;45.60
34231;DHT22;21574;51.538;-0.084;2022-07-29T02:35:58;26.80;45.70
34231;DHT22;21574;51.538;-0.084;2022-07-29T02:38:23;26.80;45.70
34231;DHT22;21574;51.538;-0.084;2022-07-29T02:41:13;26.80;45.70
34231;DHT22;21574;51.538;-0.084;2022-07-29T02:43:40;26.80;45.70
34231;DHT22;21574;51.538;-0.084;2022-07-29T02:46:08;26.80;45.80
34231;DHT22;21574;51.538;-0.084;2022-07-29T02:48:51;26.80;46.10
34231;DHT22;21574;51.538;-0.084;2022-07-29T02:51:23;26.80;45.70
34231;DHT22;21574;51.538;-0.084;2022-07-29T02:53:51;26.80;45.70
34231;DHT22;21574;51.538;-0.084;2022-07-29T02:56:18;26.80;45.80
34231;DHT22;21574;51.538;-0.084;2022-07-29T02:58:56;26.80;45.80
34231;DHT22;21574;51.538;-0.084;2022-07-29T03:01:23;26.80;45.80
34231;DHT22;21574;51.538;-0.084;2022-07-29T03:03:50;26.80;45.80
34231;DHT22;21574;51.538;-0.084;2022-07-29T03:06:17;26.70;45.90
34231;DHT22;21574;51.538;-0.084;2022-07-29T03:08:43;26.70;46.30
34231;DHT22;21574;51.538;-0.084;2022-07-29T03:11:09;26.80;46.30
34231;DHT22;21574;51.538;-0.084;2022-07-29T03:13:35;26.80;46.00
34231;DHT22;21574;51.538;-0.084;2022-07-29T03:16:01;26.80;46.10
34231;DHT22;21574;51.538;-0.084;2022-07-29T03:18:27;26.80;46.00
34231;DHT22;21574;51.538;-0.084;2022-07-29T03:20:53;26.80;46.00
34231;DHT22;21574;51.538;-0.084;2022-07-29T03:23:19;26.80;46.00
34231;DHT22;21574;51.538;-0.084;2022-07-29T03:25:45;26.80;46.10
34231;DHT22;21574;51.538;-0.084;2022-07-29T03:28:11;26.80;46.10
34231;DHT22;21574;51.538;-0.084;2022-07-29T03:30:36;26.80;46.10
34231;DHT22;21574;51.538;-0.084;2022-07-29T03:33:02;26.80;46.20
34231;DHT22;21574;51.538;-0.084;2022-07-29T03:35:27;26.80;46.20
34231;DHT22;21574;51.538;-0.084;2022-07-29T03:37:53;26.80;46.20
34231;DHT22;21574;51.538;-0.084;2022-07-29T03:40:22;26.80;46.20
34231;DHT22;21574;51.538;-0.084;2022-07-29T03:42:49;26.80;46.20
34231;DHT22;21574;51.538;-0.084;2022-07-29T03:45:17;26.80;46.20
34231;DHT22;21574;51.538;-0.084;2022-07-29T03:47:44;26.80;46.30
34231;DHT22;21574;51.538;-0.084;2022-07-29T03:50:11;26.80;46.30
34231;DHT22;21574;51.538;-0.084;2022-07-29T03:52:37;26.80;46.30
34231;DHT22;21574;51.538;-0.084;2022-07-29T03:55:03;26.80;46.30
34231;DHT22;21574;51.538;-0.084;2022-07-29T03:57:29;26.80;46.30
34231;DHT22;21574;51.538;-0.084;2022-07-29T03:59:55;26.80;46.40
34231;DHT22;21574;51.538;-0.084;2022-07-29T04:02:21;26.80;46.40
34231;DHT22;21574;51.538;-0.084;2022-07-29T04:04:47;26.80;46.40
34231;DHT22;21574;51.538;-0.084;2022-07-29T04:07:14;26.80;46.40
34231;DHT22;21574;51.538;-0.084;2022-07-29T04:09:40;26.80;46.60
34231;DHT22;21574;51.538;-0.084;2022-07-29T04:12:05;26.80;46.10
34231;DHT22;21574;51.538;-0.084;2022-07-29T04:14:31;26.70;46.60
34231;DHT22;21574;51.538;-0.084;2022-07-29T04:16:57;26.80;46.50
34231;DHT22;21574;51.538;-0.084;2022-07-29T04:19:22;26.80;46.80
34231;DHT22;21574;51.538;-0.084;2022-07-29T04:21:48;26.80;46.80
34231;DHT22;21574;51.538;-0.084;2022-07-29T04:24:13;26.80;46.80
34231;DHT22;21574;51.538;-0.084;2022-07-29T04:26:39;26.80;46.90
34231;DHT22;21574;51.538;-0.084;2022-07-29T04:29:04;26.80;46.90
34231;DHT22;21574;51.538;-0.084;2022-07-29T04:31:30;26.80;47.40
34231;DHT22;21574;51.538;-0.084;2022-07-29T04:33:55;26.90;47.30
34231;DHT22;21574;51.538;-0.084;2022-07-29T04:36:21;26.90;46.90
34231;DHT22;21574;51.538;-0.084;2022-07-29T04:38:46;26.90;46.90
34231;DHT22;21574;51.538;-0.084;2022-07-29T04:41:12;26.90;46.80
34231;DHT22;21574;51.538;-0.084;2022-07-29T04:43:37;26.90;46.80
34231;DHT22;21574;51.538;-0.084;2022-07-29T04:46:03;26.90;47.30
34231;DHT22;21574;51.538;-0.084;2022-07-29T04:48:29;26.90;47.30
34231;DHT22;21574;51.538;-0.084;2022-07-29T04:50:56;26.90;47.60
34231;DHT22;21574;51.538;-0.084;2022-07-29T04:53:21;26.90;47.10
34231;DHT22;21574;51.538;-0.084;2022-07-29T04:55:47;26.80;47.10
34231;DHT22;21574;51.538;-0.084;2022-07-29T04:58:12;26.80;47.00
34231;DHT22;21574;51.538;-0.084;2022-07-29T05:00:39;26.80;47.30
34231;DHT22;21574;51.538;-0.084;2022-07-29T05:03:04;26.80;47.00
34231;DHT22;21574;51.538;-0.084;2022-07-29T05:05:30;26.80;48.50
34231;DHT22;21574;51.538;-0.084;2022-07-29T05:07:55;26.80;48.50
34231;DHT22;21574;51.538;-0.084;2022-07-29T05:10:21;26.80;48.90
34231;DHT22;21574;51.538;-0.084;2022-07-29T05:12:47;26.80;47.80
34231;DHT22;21574;51.538;-0.084;2022-07-29T05:15:12;26.70;47.50
34231;DHT22;21574;51.538;-0.084;2022-07-29T05:17:38;26.80;47.70
34231;DHT22;21574;51.538;-0.084;2022-07-29T05:20:04;26.70;47.90
34231;DHT22;21574;51.538;-0.084;2022-07-29T05:22:29;26.70;47.80
34231;DHT22;21574;51.538;-0.084;2022-07-29T05:24:55;26.70;47.80
34231;DHT22;21574;51.538;-0.084;2022-07-29T05:27:20;26.70;47.80
34231;DHT22;21574;51.538;-0.084;2022-07-29T05:29:46;26.70;47.90
34231;DHT22;21574;51.538;-0.084;2022-07-29T05:32:12;26.70;47.90
34231;DHT22;21574;51.538;-0.084;2022-07-29T05:34:39;26.70;48.40
34231;DHT22;21574;51.538;-0.084;2022-07-29T05:37:05;26.80;47.80
34231;DHT22;21574;51.538;-0.084;2022-07-29T05:39:30;26.70;47.60
34231;DHT22;21574;51.538;-0.084;2022-07-29T05:41:56;26.80;47.60
34231;DHT22;21574;51.538;-0.084;2022-07-29T05:44:22;26.80;47.60
34231;DHT22;21574;51.538;-0.084;2022-07-29T05:46:47;26.70;47.60
34231;DHT22;21574;51.538;-0.084;2022-07-29T05:49:13;26.80;47.70
34231;DHT22;21574;51.538;-0.084;2022-07-29T05:51:38;26.70;48.70
34231;DHT22;21574;51.538;-0.084;2022-07-29T05:54:04;26.80;48.90
34231;DHT22;21574;51.538;-0.084;2022-07-29T05:56:29;26.80;48.40
34231;DHT22;21574;51.538;-0.084;2022-07-29T05:58:54;26.80;48.10
34231;DHT22;21574;51.538;-0.084;2022-07-29T06:01:20;26.80;48.10
34231;DHT22;21574;51.538;-0.084;2022-07-29T06:03:45;26.70;48.30
34231;DHT22;21574;51.538;-0.084;2022-07-29T06:06:11;26.80;49.60
34231;DHT22;21574;51.538;-0.084;2022-07-29T06:08:37;26.70;50.10
34231;DHT22;21574;51.538;-0.084;2022-07-29T06:11:02;26.80;50.20
34231;DHT22;21574;51.538;-0.084;2022-07-29T06:13:28;26.80;49.90
34231;DHT22;21574;51.538;-0.084;2022-07-29T06:15:57;26.80;50.20
34231;DHT22;21574;51.538;-0.084;2022-07-29T06:18:22;26.80;50.40
34231;DHT22;21574;51.538;-0.084;2022-07-29T06:20:52;26.80;50.00
34231;DHT22;21574;51.538;-0.084;2022-07-29T06:23:18;26.90;50.20
34231;DHT22;21574;51.538;-0.084;2022-07-29T06:25:44;26.90;50.20
34231;DHT22;21574;51.538;-0.084;2022-07-29T06:28:09;26.90;50.40
34231;DHT22;21574;51.538;-0.084;2022-07-29T06:30:35;26.90;50.50
34231;DHT22;21574;51.538;-0.084;2022-07-29T06:33:00;26.90;50.30
34231;DHT22;21574;51.538;-0.084;2022-07-29T06:35:27;26.90;50.40
34231;DHT22;21574;51.538;-0.084;2022-07-29T06:37:52;26.90;50.40
34231;DHT22;21574;51.538;-0.084;2022-07-29T06:40:18;26.90;50.50
34231;DHT22;21574;51.538;-0.084;2022-07-29T06:43:02;26.90;50.30
34231;DHT22;21574;51.538;-0.084;2022-07-29T06:45:28;26.90;50.80
34231;DHT22;21574;51.538;-0.084;2022-07-29T06:47:53;26.90;50.70
34231;DHT22;21574;51.538;-0.084;2022-07-29T06:50:19;26.90;50.70
34231;DHT22;21574;51.538;-0.084;2022-07-29T06:52:44;26.90;51.00
34231;DHT22;21574;51.538;-0.084;2022-07-29T06:55:10;26.90;51.10
34231;DHT22;21574;51.538;-0.084;2022-07-29T06:57:35;26.80;50.40
34231;DHT22;21574;51.538;-0.084;2022-07-29T07:00:01;26.90;50.60
34231;DHT22;21574;51.538;-0.084;2022-07-29T07:02:26;26.90;50.50
34231;DHT22;21574;51.538;-0.084;2022-07-29T07:04:52;26.90;50.50
34231;DHT22;21574;51.538;-0.084;2022-07-29T07:07:17;26.90;50.30
34231;DHT22;21574;51.538;-0.084;2022-07-29T07:09:43;26.90;50.40
34231;DHT22;21574;51.538;-0.084;2022-07-29T07:12:08;26.90;50.30
34231;DHT22;21574;51.538;-0.084;2022-07-29T07:14:34;26.90;50.50
34231;DHT22;21574;51.538;-0.084;2022-07-29T07:16:59;26.90;50.50
34231;DHT22;21574;51.538;-0.084;2022-07-29T07:19:29;26.80;50.10
34231;DHT22;21574;51.538;-0.084;2022-07-29T07:21:54;26.90;50.30
34231;DHT22;21574;51.538;-0.084;2022-07-29T07:24:20;26.90;50.10
34231;DHT22;21574;51.538;-0.084;2022-07-29T07:26:45;26.90;50.20
34231;DHT22;21574;51.538;-0.084;2022-07-29T07:29:11;26.90;50.20
34231;DHT22;21574;51.538;-0.084;2022-07-29T07:31:37;26.90;50.30
34231;DHT22;21574;51.538;-0.084;2022-07-29T07:34:03;26.90;50.30
34231;DHT22;21574;51.538;-0.084;2022-07-29T07:36:28;26.80;50.30
34231;DHT22;21574;51.538;-0.084;2022-07-29T07:38:54;26.90;50.40
34231;DHT22;21574;51.538;-0.084;2022-07-29T07:41:20;26.90;50.50
34231;DHT22;21574;51.538;-0.084;2022-07-29T07:43:46;26.90;50.60
34231;DHT22;21574;51.538;-0.084;2022-07-29T07:46:11;26.90;50.70
34231;DHT22;21574;51.538;-0.084;2022-07-29T07:48:37;26.90;50.60
34231;DHT22;21574;51.538;-0.084;2022-07-29T07:51:02;26.90;50.80
34231;DHT22;21574;51.538;-0.084;2022-07-29T07:53:28;26.90;50.80
34231;DHT22;21574;51.538;-0.084;2022-07-29T07:55:55;26.80;50.50
34231;DHT22;21574;51.538;-0.084;2022-07-29T07:58:20;26.80;50.50
34231;DHT22;21574;51.538;-0.084;2022-07-29T08:00:46;26.90;50.50
34231;DHT22;21574;51.538;-0.084;2022-07-29T08:03:12;26.90;50.10
34231;DHT22;21574;51.538;-0.084;2022-07-29T08:05:41;26.90;49.60
34231;DHT22;21574;51.538;-0.084;2022-07-29T08:08:07;26.90;50.10
34231;DHT22;21574;51.538;-0.084;2022-07-29T08:10:33;26.90;49.90
34231;DHT22;21574;51.538;-0.084;2022-07-29T08:13:17;26.90;49.70
34231;DHT22;21574;51.538;-0.084;2022-07-29T08:15:43;26.90;50.00
34231;DHT22;21574;51.538;-0.084;2022-07-29T08:18:10;26.90;50.00
34231;DHT22;21574;51.538;-0.084;2022-07-29T08:20:36;26.90;50.10
34231;DHT22;21574;51.538;-0.084;2022-07-29T08:23:03;26.90;50.10
34231;DHT22;21574;51.538;-0.084;2022-07-29T08:25:29;26.90;50.10
34231;DHT22;21574;51.538;-0.084;2022-07-29T08:27:55;27.00;50.20
34231;DHT22;21574;51.538;-0.084;2022-07-29T08:30:20;26.90;50.00
34231;DHT22;21574;51.538;-0.084;2022-07-29T08:32:47;26.90;50.00
34231;DHT22;21574;51.538;-0.084;2022-07-29T08:35:12;27.00;49.90
34231;DHT22;21574;51.538;-0.084;2022-07-29T08:37:38;27.00;49.80
34231;DHT22;21574;51.538;-0.084;2022-07-29T08:40:03;26.90;49.60
34231;DHT22;21574;51.538;-0.084;2022-07-29T08:42:29;26.90;49.70
34231;DHT22;21574;51.538;-0.084;2022-07-29T08:44:55;27.00;49.70
34231;DHT22;21574;51.538;-0.084;2022-07-29T08:47:22;26.90;49.50
34231;DHT22;21574;51.538;-0.084;2022-07-29T08:49:47;27.00;49.40
34231;DHT22;21574;51.538;-0.084;2022-07-29T08:52:13;26.90;49.30
34231;DHT22;21574;51.538;-0.084;2022-07-29T08:54:39;26.90;49.10
34231;DHT22;21574;51.538;-0.084;2022-07-29T08:57:08;26.90;49.30
34231;DHT22;21574;51.538;-0.084;2022-07-29T08:59:34;26.90;49.00
34231;DHT22;21574;51.538;-0.084;2022-07-29T09:02:00;26.90;48.90
34231;DHT22;21574;51.538;-0.084;2022-07-29T09:04:26;26.90;48.90
34231;DHT22;21574;51.538;-0.084;2022-07-29T09:06:52;26.90;48.70
34231;DHT22;21574;51.538;-0.084;2022-07-29T09:09:19;26.90;48.60
34231;DHT22;21574;51.538;-0.084;2022-07-29T09:11:45;26.90;48.50
34231;DHT22;21574;51.538;-0.084;2022-07-29T09:14:11;26.90;48.50
34231;DHT22;21574;51.538;-0.084;2022-07-29T09:16:46;26.90;48.30
34231;DHT22;21574;51.538;-0.084;2022-07-29T09:19:22;26.90;48.40
34231;DHT22;21574;51.538;-0.084;2022-07-29T09:21:48;26.90;48.30
34231;DHT22;21574;51.538;-0.084;2022-07-29T09:26:59;26.90;48.50
34231;DHT22;21574;51.538;-0.084;2022-07-29T09:29:25;26.90;48.40
34231;DHT22;21574;51.538;-0.084;2022-07-29T09:31:53;26.90;48.40
34231;DHT22;21574;51.538;-0.084;2022-07-29T09:34:26;26.90;48.30
34231;DHT22;21574;51.538;-0.084;2022-07-29T09:36:52;26.90;48.20
34231;DHT22;21574;51.538;-0.084;2022-07-29T09:39:28;26.90;48.10
34231;DHT22;21574;51.538;-0.084;2022-07-29T09:41:56;26.90;47.80
34231;DHT22;21574;51.538;-0.084;2022-07-29T09:44:22;26.90;47.60
34231;DHT22;21574;51.538;-0.084;2022-07-29T09:47:01;26.90;47.40
34231;DHT22;21574;51.538;-0.084;2022-07-29T09:49:34;26.90;47.40
34231;DHT22;21574;51.538;-0.084;2022-07-29T09:52:06;26.90;47.30
34231;DHT22;21574;51.538;-0.084;2022-07-29T09:54:32;26.90;47.30
34231;DHT22;21574;51.538;-0.084;2022-07-29T09:57:21;26.90;47.20
34231;DHT22;21574;51.538;-0.084;2022-07-29T09:59:57;26.90;47.00
34231;DHT22;21574;51.538;-0.084;2022-07-29T10:02:22;26.90;46.90
34231;DHT22;21574;51.538;-0.084;2022-07-29T10:04:52;26.90;46.90
34231;DHT22;21574;51.538;-0.084;2022-07-29T10:07:17;26.90;46.80
34231;DHT22;21574;51.538;-0.084;2022-07-29T10:09:53;26.90;46.70
34231;DHT22;21574;51.538;-0.084;2022-07-29T10:12:19;26.90;46.60
34231;DHT22;21574;51.538;-0.084;2022-07-29T10:14:45;26.90;46.60
34231;DHT22;21574;51.538;-0.084;2022-07-29T10:17:11;26.90;46.70
34231;DHT22;21574;51.538;-0.084;2022-07-29T10:19:37;26.90;46.70
34231;DHT22;21574;51.538;-0.084;2022-07-29T10:22:04;26.90;46.70
34231;DHT22;21574;51.538;-0.084;2022-07-29T10:24:30;26.90;46.50
34231;DHT22;21574;51.538;-0.084;2022-07-29T10:26:57;26.90;46.50
34231;DHT22;21574;51.538;-0.084;2022-07-29T10:29:23;26.90;46.50
34231;DHT22;21574;51.538;-0.084;2022-07-29T10:39:52;26.90;46.60
34231;DHT22;21574;51.538;-0.084;2022-07-29T10:42:21;26.90;46.60
34231;DHT22;21574;51.538;-0.084;2022-07-29T10:44:48;26.90;46.70
34231;DHT22;21574;51.538;-0.084;2022-07-29T10:47:23;26.90;46.60
34231;DHT22;21574;51.538;-0.084;2022-07-29T10:49:56;26.90;46.50
34231;DHT22;21574;51.538;-0.084;2022-07-29T10:52:22;26.90;46.40
34231;DHT22;21574;51.538;-0.084;2022-07-29T10:54:49;26.90;46.50
34231;DHT22;21574;51.538;-0.084;2022-07-29T10:57:23;26.90;46.50
34231;DHT22;21574;51.538;-0.084;2022-07-29T11:07:34;26.90;46.40
34231;DHT22;21574;51.538;-0.084;2022-07-29T11:15:06;26.90;46.70
34231;DHT22;21574;51.538;-0.084;2022-07-29T11:20:36;26.90;46.50
34231;DHT22;21574;51.538;-0.084;2022-07-29T11:25:42;26.90;46.50
34231;DHT22;21574;51.538;-0.084;2022-07-29T11:28:09;26.90;46.40
34231;DHT22;21574;51.538;-0.084;2022-07-29T11:30:46;26.90;46.20
34231;DHT22;21574;51.538;-0.084;2022-07-29T11:33:26;26.90;46.10
34231;DHT22;21574;51.538;-0.084;2022-07-29T11:38:36;26.90;46.50
34231;DHT22;21574;51.538;-0.084;2022-07-29T11:43:45;26.90;45.90
34231;DHT22;21574;51.538;-0.084;2022-07-29T11:46:11;26.90;45.70
34231;DHT22;21574;51.538;-0.084;2022-07-29T11:48:36;26.90;45.40
34231;DHT22;21574;51.538;-0.084;2022-07-29T11:51:08;26.90;45.50
34231;DHT22;21574;51.538;-0.084;2022-07-29T11:53:34;26.90;45.40
34231;DHT22;21574;51.538;-0.084;2022-07-29T11:56:02;26.90;45.40
34231;DHT22;21574;51.538;-0.084;2022-07-29T11:58:32;26.90;45.60
34231;DHT22;21574;51.538;-0.084;2022-07-29T12:00:58;26.90;45.60
34231;DHT22;21574;51.538;-0.084;2022-07-29T12:03:27;26.90;46.00
34231;DHT22;21574;51.538;-0.084;2022-07-29T12:05:53;26.90;45.70
34231;DHT22;21574;51.538;-0.084;2022-07-29T12:08:20;26.90;45.60
34231;DHT22;21574;51.538;-0.084;2022-07-29T12:10:47;26.90;45.70
34231;DHT22;21574;51.538;-0.084;2022-07-29T12:13:13;26.90;45.50
34231;DHT22;21574;51.538;-0.084;2022-07-29T12:15:40;26.90;45.50
34231;DHT22;21574;51.538;-0.084;2022-07-29T12:18:09;26.90;45.70
34231;DHT22;21574;51.538;-0.084;2022-07-29T12:20:35;26.90;45.80
34231;DHT22;21574;51.538;-0.084;2022-07-29T12:23:04;26.90;45.80
34231;DHT22;21574;51.538;-0.084;2022-07-29T12:25:33;26.90;45.80
34231;DHT22;21574;51.538;-0.084;2022-07-29T12:27:59;26.90;45.80
34231;DHT22;21574;51.538;-0.084;2022-07-29T12:30:34;26.90;46.00
34231;DHT22;21574;51.538;-0.084;2022-07-29T12:33:00;26.90;46.10
34231;DHT22;21574;51.538;-0.084;2022-07-29T12:35:25;26.90;46.20
34231;DHT22;21574;51.538;-0.084;2022-07-29T12:37:51;27.00;46.00
34231;DHT22;21574;51.538;-0.084;2022-07-29T12:40:17;27.00;45.70
34231;DHT22;21574;51.538;-0.084;2022-07-29T12:45:30;27.00;44.80
34231;DHT22;21574;51.538;-0.084;2022-07-29T12:47:56;27.10;44.30
34231;DHT22;21574;51.538;-0.084;2022-07-29T12:50:22;27.10;44.10
34231;DHT22;21574;51.538;-0.084;2022-07-29T12:52:47;27.10;43.90
34231;DHT22;21574;51.538;-0.084;2022-07-29T12:55:13;27.10;43.70
34231;DHT22;21574;51.538;-0.084;2022-07-29T12:57:48;27.20;43.70
34231;DHT22;21574;51.538;-0.084;2022-07-29T13:00:16;27.20;43.80
34231;DHT22;21574;51.538;-0.084;2022-07-29T13:02:41;27.20;43.90
34231;DHT22;21574;51.538;-0.084;2022-07-29T13:05:08;27.20;44.00
34231;DHT22;21574;51.538;-0.084;2022-07-29T13:07:34;27.20;44.10
34231;DHT22;21574;51.538;-0.084;2022-07-29T13:10:09;27.20;44.20
34231;DHT22;21574;51.538;-0.084;2022-07-29T13:12:35;27.20;44.30
34231;DHT22;21574;51.538;-0.084;2022-07-29T13:15:01;27.20;44.30
34231;DHT22;21574;51.538;-0.084;2022-07-29T13:17:40;27.20;44.50
34231;DHT22;21574;51.538;-0.084;2022-07-29T13:20:06;27.30;44.70
34231;DHT22;21574;51.538;-0.084;2022-07-29T13:22:34;27.30;44.80
34231;DHT22;21574;51.538;-0.084;2022-07-29T13:25:00;27.30;44.80
34231;DHT22;21574;51.538;-0.084;2022-07-29T13:27:29;27.30;44.90
34231;DHT22;21574;51.538;-0.084;2022-07-29T13:29:57;27.30;44.80
34231;DHT22;21574;51.538;-0.084;2022-07-29T13:32:23;27.30;44.90
34231;DHT22;21574;51.538;-0.084;2022-07-29T13:34:50;27.30;43.90
34231;DHT22;21574;51.538;-0.084;2022-07-29T13:37:16;27.20;43.80
34231;DHT22;21574;51.538;-0.084;2022-07-29T13:39:42;27.20;44.30
34231;DHT22;21574;51.538;-0.084;2022-07-29T13:42:08;27.20;44.50
34231;DHT22;21574;51.538;-0.084;2022-07-29T13:44:34;27.20;44.50
34231;DHT22;21574;51.538;-0.084;2022-07-29T13:47:00;27.20;44.60
34231;DHT22;21574;51.538;-0.084;2022-07-29T13:49:26;27.20;44.60
34231;DHT22;21574;51.538;-0.084;2022-07-29T13:51:51;27.10;44.50
34231;DHT22;21574;51.538;-0.084;2022-07-29T13:54:17;27.20;44.70
34231;DHT22;21574;51.538;-0.084;2022-07-29T13:56:42;27.20;44.90
34231;DHT22;21574;51.538;-0.084;2022-07-29T13:59:08;27.20;44.80
34231;DHT22;21574;51.538;-0.084;2022-07-29T14:01:34;27.10;44.80
34231;DHT22;21574;51.538;-0.084;2022-07-29T14:04:00;27.20;44.90
34231;DHT22;21574;51.538;-0.084;2022-07-29T14:06:25;27.20;45.00
34231;DHT22;21574;51.538;-0.084;2022-07-29T14:08:51;27.10;44.90
34231;DHT22;21574;51.538;-0.084;2022-07-29T14:11:16;27.20;45.00
34231;DHT22;21574;51.538;-0.084;2022-07-29T14:13:42;27.10;44.90
34231;DHT22;21574;51.538;-0.084;2022-07-29T14:16:07;27.20;45.00
34231;DHT22;21574;51.538;-0.084;2022-07-29T14:18:33;27.20;45.10
34231;DHT22;21574;51.538;-0.084;2022-07-29T14:20:58;27.20;45.20
34231;DHT22;21574;51.538;-0.084;2022-07-29T14:23:24;27.20;45.10
34231;DHT22;21574;51.538;-0.084;2022-07-29T14:25:49;27.20;45.20
34231;DHT22;21574;51.538;-0.084;2022-07-29T14:28:15;27.20;45.20
34231;DHT22;21574;51.538;-0.084;2022-07-29T14:30:40;27.20;45.20
34231;DHT22;21574;51.538;-0.084;2022-07-29T14:33:06;27.20;45.30
34231;DHT22;21574;51.538;-0.084;2022-07-29T14:35:31;27.20;45.20
34231;DHT22;21574;51.538;-0.084;2022-07-29T14:37:57;27.20;45.10
34231;DHT22;21574;51.538;-0.084;2022-07-29T14:40:23;27.20;45.10
34231;DHT22;21574;51.538;-0.084;2022-07-29T14:42:48;27.20;45.20
34231;DHT22;21574;51.538;-0.084;2022-07-29T14:45:14;27.20;45.10
34231;DHT22;21574;51.538;-0.084;2022-07-29T14:47:39;27.20;45.00
34231;DHT22;21574;51.538;-0.084;2022-07-29T14:50:05;27.20;44.90
34231;DHT22;21574;51.538;-0.084;2022-07-29T14:52:31;27.20;44.90
34231;DHT22;21574;51.538;-0.084;2022-07-29T14:54:56;27.20;44.90
34231;DHT22;21574;51.538;-0.084;2022-07-29T14:57:22;27.20;44.80
34231;DHT22;21574;51.538;-0.084;2022-07-29T14:59:47;27.20;44.90
34231;DHT22;21574;51.538;-0.084;2022-07-29T15:02:13;27.20;44.70
34231;DHT22;21574;51.538;-0.084;2022-07-29T15:04:39;27.20;44.90
34231;DHT22;21574;51.538;-0.084;2022-07-29T15:07:04;27.20;45.00
34231;DHT22;21574;51.538;-0.084;2022-07-29T15:09:30;27.20;45.00
34231;DHT22;21574;51.538;-0.084;2022-07-29T15:11:55;27.20;44.90
34231;DHT22;21574;51.538;-0.084;2022-07-29T15:14:21;27.20;44.90
34231;DHT22;21574;51.538;-0.084;2022-07-29T15:16:46;27.20;44.80
34231;DHT22;21574;51.538;-0.084;2022-07-29T15:19:12;27.20;44.80
34231;DHT22;21574;51.538;-0.084;2022-07-29T15:21:37;27.20;45.00
34231;DHT22;21574;51.538;-0.084;2022-07-29T15:24:03;27.20;44.90
34231;DHT22;21574;51.538;-0.084;2022-07-29T15:26:28;27.20;44.90
34231;DHT22;21574;51.538;-0.084;2022-07-29T15:28:54;27.20;44.80
34231;DHT22;21574;51.538;-0.084;2022-07-29T15:31:21;27.20;44.80
34231;DHT22;21574;51.538;-0.084;2022-07-29T15:33:46;27.20;44.90
34231;DHT22;21574;51.538;-0.084;2022-07-29T15:36:12;27.20;44.80
34231;DHT22;21574;51.538;-0.084;2022-07-29T15:38:38;27.20;44.80
34231;DHT22;21574;51.538;-0.084;2022-07-29T15:41:05;27.20;44.70
34231;DHT22;21574;51.538;-0.084;2022-07-29T15:43:31;27.20;44.60
34231;DHT22;21574;51.538;-0.084;2022-07-29T15:45:56;27.20;44.70
34231;DHT22;21574;51.538;-0.084;2022-07-29T15:48:40;27.20;44.60
34231;DHT22;21574;51.538;-0.084;2022-07-29T15:51:06;27.20;44.60
34231;DHT22;21574;51.538;-0.084;2022-07-29T15:53:31;27.20;44.60
34231;DHT22;21574;51.538;-0.084;2022-07-29T15:55:58;27.20;44.50
34231;DHT22;21574;51.538;-0.084;2022-07-29T15:58:23;27.20;44.60
34231;DHT22;21574;51.538;-0.084;2022-07-29T16:00:48;27.20;44.90
34231;DHT22;21574;51.538;-0.084;2022-07-29T16:03:14;27.20;44.80